sensor_id;sensor_type;location;lat;lon;timestamp;P1;durP1;ratioP1;P2;durP2;ratioP2
56297;SDS011;42208;6.376;-10.782;2023-02-10T00:01:40;141.93;;;34.25;;
56297;SDS011;42208;6.376;-10.782;2023-02-10T00:04:10;186.20;;;37.53;;
56297;SDS011;42208;6.376;-10.782;2023-02-10T00:06:41;198.70;;;47.22;;
56297;SDS011;42208;6.376;-10.782;2023-02-10T00:09:10;241.32;;;59.00;;
56297;SDS011;42208;6.376;-10.782;2023-02-10T00:11:40;198.55;;;49.03;;
56297;SDS011;42208;6.376;-10.782;2023-02-10T00:14:09;208.02;;;47.33;;
56297;SDS011;42208;6.376;-10.782;2023-02-10T00:16:39;161.00;;;37.25;;
56297;SDS011;42208;6.376;-10.782;2023-02-10T00:19:08;150.43;;;37.75;;
56297;SDS011;42208;6.376;-10.782;2023-02-10T00:21:36;171.75;;;34.30;;
56297;SDS011;42208;6.376;-10.782;2023-02-10T00:24:04;165.23;;;29.33;;
56297;SDS011;42208;6.376;-10.782;2023-02-10T00:26:33;113.07;;;25.63;;
56297;SDS011;42208;6.376;-10.782;2023-02-10T00:29:01;114.93;;;21.77;;
56297;SDS011;42208;6.376;-10.782;2023-02-10T00:31:30;111.05;;;22.80;;
56297;SDS011;42208;6.376;-10.782;2023-02-10T00:33:58;146.65;;;28.77;;
56297;SDS011;42208;6.376;-10.782;2023-02-10T00:36:28;150.18;;;29.17;;
56297;SDS011;42208;6.376;-10.782;2023-02-10T00:38:56;146.82;;;30.60;;
56297;SDS011;42208;6.376;-10.782;2023-02-10T00:41:24;226.02;;;45.95;;
56297;SDS011;42208;6.376;-10.782;2023-02-10T00:43:53;197.95;;;48.50;;
56297;SDS011;42208;6.376;-10.782;2023-02-10T00:46:21;194.63;;;48.47;;
56297;SDS011;42208;6.376;-10.782;2023-02-10T00:48:50;235.85;;;59.15;;
56297;SDS011;42208;6.376;-10.782;2023-02-10T00:51:18;234.82;;;60.05;;
56297;SDS011;42208;6.376;-10.782;2023-02-10T00:53:47;279.15;;;77.30;;
56297;SDS011;42208;6.376;-10.782;2023-02-10T00:56:16;248.98;;;61.72;;
56297;SDS011;42208;6.376;-10.782;2023-02-10T00:58:46;214.77;;;49.92;;
56297;SDS011;42208;6.376;-10.782;2023-02-10T01:02:50;146.18;;;28.55;;
56297;SDS011;42208;6.376;-10.782;2023-02-10T01:05:18;128.25;;;27.45;;
56297;SDS011;42208;6.376;-10.782;2023-02-10T01:07:48;122.35;;;29.55;;
56297;SDS011;42208;6.376;-10.782;2023-02-10T01:10:16;151.93;;;31.88;;
56297;SDS011;42208;6.376;-10.782;2023-02-10T01:12:45;148.38;;;28.70;;
56297;SDS011;42208;6.376;-10.782;2023-02-10T01:15:13;133.93;;;29.75;;
56297;SDS011;42208;6.376;-10.782;2023-02-10T01:17:42;159.18;;;31.25;;
56297;SDS011;42208;6.376;-10.782;2023-02-10T01:20:12;147.38;;;29.75;;
56297;SDS011;42208;6.376;-10.782;2023-02-10T01:22:41;142.82;;;30.85;;
56297;SDS011;42208;6.376;-10.782;2023-02-10T01:25:10;145.77;;;31.38;;
56297;SDS011;42208;6.376;-10.782;2023-02-10T01:27:38;144.48;;;32.58;;
56297;SDS011;42208;6.376;-10.782;2023-02-10T01:30:07;141.90;;;30.52;;
56297;SDS011;42208;6.376;-10.782;2023-02-10T01:32:36;153.63;;;29.80;;
56297;SDS011;42208;6.376;-10.782;2023-02-10T01:35:04;145.70;;;34.33;;
56297;SDS011;42208;6.376;-10.782;2023-02-10T01:37:33;191.93;;;40.90;;
56297;SDS011;42208;6.376;-10.782;2023-02-10T01:40:01;139.65;;;37.63;;
56297;SDS011;42208;6.376;-10.782;2023-02-10T01:42:30;178.70;;;45.70;;
56297;SDS011;42208;6.376;-10.782;2023-02-10T01:45:09;198.77;;;48.35;;
56297;SDS011;42208;6.376;-10.782;2023-02-10T01:47:41;177.30;;;43.67;;
56297;SDS011;42208;6.376;-10.782;2023-02-10T01:50:11;191.02;;;49.35;;
56297;SDS011;42208;6.376;-10.782;2023-02-10T01:52:40;189.95;;;48.30;;
56297;SDS011;42208;6.376;-10.782;2023-02-10T01:55:10;181.73;;;50.17;;
56297;SDS011;42208;6.376;-10.782;2023-02-10T01:57:42;173.57;;;42.83;;
56297;SDS011;42208;6.376;-10.782;2023-02-10T02:00:12;173.18;;;43.55;;
56297;SDS011;42208;6.376;-10.782;2023-02-10T02:02:43;166.68;;;39.35;;
56297;SDS011;42208;6.376;-10.782;2023-02-10T02:05:27;142.55;;;34.83;;
56297;SDS011;42208;6.376;-10.782;2023-02-10T02:07:58;153.07;;;33.58;;
56297;SDS011;42208;6.376;-10.782;2023-02-10T02:13:46;136.93;;;30.65;;
56297;SDS011;42208;6.376;-10.782;2023-02-10T02:22:04;113.75;;;25.38;;
56297;SDS011;42208;6.376;-10.782;2023-02-10T02:25:05;125.75;;;26.63;;
56297;SDS011;42208;6.376;-10.782;2023-02-10T02:33:18;195.00;;;45.08;;
56297;SDS011;42208;6.376;-10.782;2023-02-10T02:36:16;166.95;;;44.10;;
56297;SDS011;42208;6.376;-10.782;2023-02-10T02:41:26;176.57;;;46.05;;
56297;SDS011;42208;6.376;-10.782;2023-02-10T02:43:56;183.27;;;50.70;;
56297;SDS011;42208;6.376;-10.782;2023-02-10T02:52:05;175.60;;;39.15;;
56297;SDS011;42208;6.376;-10.782;2023-02-10T02:54:52;162.90;;;37.97;;
56297;SDS011;42208;6.376;-10.782;2023-02-10T02:57:34;135.95;;;32.55;;
56297;SDS011;42208;6.376;-10.782;2023-02-10T03:00:45;140.75;;;30.52;;
56297;SDS011;42208;6.376;-10.782;2023-02-10T03:03:08;131.98;;;29.08;;
56297;SDS011;42208;6.376;-10.782;2023-02-10T03:05:36;140.27;;;28.40;;
56297;SDS011;42208;6.376;-10.782;2023-02-10T03:08:06;115.80;;;26.08;;
56297;SDS011;42208;6.376;-10.782;2023-02-10T03:10:35;119.60;;;25.70;;
56297;SDS011;42208;6.376;-10.782;2023-02-10T03:13:03;117.63;;;23.50;;
56297;SDS011;42208;6.376;-10.782;2023-02-10T03:15:31;123.07;;;24.40;;
56297;SDS011;42208;6.376;-10.782;2023-02-10T03:18:00;119.47;;;25.00;;
56297;SDS011;42208;6.376;-10.782;2023-02-10T03:20:28;133.57;;;25.60;;
56297;SDS011;42208;6.376;-10.782;2023-02-10T03:22:56;117.20;;;27.05;;
56297;SDS011;42208;6.376;-10.782;2023-02-10T03:25:24;134.15;;;25.20;;
56297;SDS011;42208;6.376;-10.782;2023-02-10T03:27:53;138.52;;;27.85;;
56297;SDS011;42208;6.376;-10.782;2023-02-10T03:30:21;129.93;;;26.75;;
56297;SDS011;42208;6.376;-10.782;2023-02-10T03:32:49;119.47;;;28.60;;
56297;SDS011;42208;6.376;-10.782;2023-02-10T03:35:18;131.07;;;29.75;;
56297;SDS011;42208;6.376;-10.782;2023-02-10T03:37:47;158.13;;;30.77;;
56297;SDS011;42208;6.376;-10.782;2023-02-10T03:40:15;122.05;;;25.73;;
56297;SDS011;42208;6.376;-10.782;2023-02-10T03:42:43;113.03;;;24.60;;
56297;SDS011;42208;6.376;-10.782;2023-02-10T03:45:12;126.32;;;25.02;;
56297;SDS011;42208;6.376;-10.782;2023-02-10T03:47:40;109.63;;;24.10;;
56297;SDS011;42208;6.376;-10.782;2023-02-10T03:50:09;117.03;;;23.38;;
56297;SDS011;42208;6.376;-10.782;2023-02-10T03:52:38;108.95;;;22.65;;
56297;SDS011;42208;6.376;-10.782;2023-02-10T03:55:06;114.82;;;23.67;;
56297;SDS011;42208;6.376;-10.782;2023-02-10T03:57:34;94.80;;;24.38;;
56297;SDS011;42208;6.376;-10.782;2023-02-10T04:00:03;125.47;;;25.77;;
56297;SDS011;42208;6.376;-10.782;2023-02-10T04:02:38;111.22;;;23.75;;
56297;SDS011;42208;6.376;-10.782;2023-02-10T04:05:06;127.30;;;26.33;;
56297;SDS011;42208;6.376;-10.782;2023-02-10T04:07:35;119.30;;;25.40;;
56297;SDS011;42208;6.376;-10.782;2023-02-10T04:10:03;116.47;;;27.58;;
56297;SDS011;42208;6.376;-10.782;2023-02-10T04:12:32;118.20;;;27.08;;
56297;SDS011;42208;6.376;-10.782;2023-02-10T04:15:00;115.70;;;25.80;;
56297;SDS011;42208;6.376;-10.782;2023-02-10T04:17:29;130.18;;;27.48;;
56297;SDS011;42208;6.376;-10.782;2023-02-10T04:19:57;122.10;;;25.45;;
56297;SDS011;42208;6.376;-10.782;2023-02-10T04:22:25;117.43;;;25.33;;
56297;SDS011;42208;6.376;-10.782;2023-02-10T04:24:53;108.30;;;24.20;;
56297;SDS011;42208;6.376;-10.782;2023-02-10T04:27:22;105.00;;;22.15;;
56297;SDS011;42208;6.376;-10.782;2023-02-10T04:29:50;114.13;;;25.58;;
56297;SDS011;42208;6.376;-10.782;2023-02-10T04:32:18;118.72;;;22.73;;
56297;SDS011;42208;6.376;-10.782;2023-02-10T04:34:46;124.43;;;24.30;;
56297;SDS011;42208;6.376;-10.782;2023-02-10T04:37:14;108.68;;;24.40;;
56297;SDS011;42208;6.376;-10.782;2023-02-10T04:39:43;96.55;;;22.33;;
56297;SDS011;42208;6.376;-10.782;2023-02-10T04:42:11;104.70;;;22.38;;
56297;SDS011;42208;6.376;-10.782;2023-02-10T04:44:40;115.93;;;24.17;;
56297;SDS011;42208;6.376;-10.782;2023-02-10T04:47:08;125.63;;;24.15;;
56297;SDS011;42208;6.376;-10.782;2023-02-10T04:49:36;130.88;;;26.70;;
56297;SDS011;42208;6.376;-10.782;2023-02-10T04:52:04;103.75;;;25.85;;
56297;SDS011;42208;6.376;-10.782;2023-02-10T04:54:32;137.20;;;30.02;;
56297;SDS011;42208;6.376;-10.782;2023-02-10T04:57:01;122.78;;;25.92;;
56297;SDS011;42208;6.376;-10.782;2023-02-10T04:59:29;105.90;;;27.55;;
56297;SDS011;42208;6.376;-10.782;2023-02-10T05:01:57;115.32;;;27.52;;
56297;SDS011;42208;6.376;-10.782;2023-02-10T05:04:25;138.73;;;31.20;;
56297;SDS011;42208;6.376;-10.782;2023-02-10T05:06:54;123.30;;;28.75;;
56297;SDS011;42208;6.376;-10.782;2023-02-10T05:09:22;101.50;;;23.85;;
56297;SDS011;42208;6.376;-10.782;2023-02-10T05:11:50;119.45;;;26.73;;
56297;SDS011;42208;6.376;-10.782;2023-02-10T05:14:19;106.05;;;22.23;;
56297;SDS011;42208;6.376;-10.782;2023-02-10T05:16:47;117.30;;;23.20;;
56297;SDS011;42208;6.376;-10.782;2023-02-10T05:19:16;124.70;;;26.55;;
56297;SDS011;42208;6.376;-10.782;2023-02-10T05:21:44;131.30;;;29.30;;
56297;SDS011;42208;6.376;-10.782;2023-02-10T05:24:12;117.28;;;27.30;;
56297;SDS011;42208;6.376;-10.782;2023-02-10T05:26:41;143.50;;;29.70;;
56297;SDS011;42208;6.376;-10.782;2023-02-10T05:29:09;127.70;;;29.23;;
56297;SDS011;42208;6.376;-10.782;2023-02-10T05:31:37;124.78;;;26.48;;
56297;SDS011;42208;6.376;-10.782;2023-02-10T05:34:06;113.07;;;24.50;;
56297;SDS011;42208;6.376;-10.782;2023-02-10T05:36:34;108.53;;;24.05;;
56297;SDS011;42208;6.376;-10.782;2023-02-10T05:39:02;101.90;;;24.38;;
56297;SDS011;42208;6.376;-10.782;2023-02-10T05:41:31;112.47;;;24.13;;
56297;SDS011;42208;6.376;-10.782;2023-02-10T05:44:01;116.35;;;23.75;;
56297;SDS011;42208;6.376;-10.782;2023-02-10T05:46:30;111.00;;;24.20;;
56297;SDS011;42208;6.376;-10.782;2023-02-10T05:48:58;106.38;;;22.65;;
56297;SDS011;42208;6.376;-10.782;2023-02-10T05:51:26;117.10;;;24.38;;
56297;SDS011;42208;6.376;-10.782;2023-02-10T05:53:55;119.32;;;23.58;;
56297;SDS011;42208;6.376;-10.782;2023-02-10T05:56:23;122.93;;;25.77;;
56297;SDS011;42208;6.376;-10.782;2023-02-10T05:58:51;131.68;;;28.58;;
56297;SDS011;42208;6.376;-10.782;2023-02-10T06:01:19;133.40;;;28.92;;
56297;SDS011;42208;6.376;-10.782;2023-02-10T06:03:48;118.57;;;25.75;;
56297;SDS011;42208;6.376;-10.782;2023-02-10T06:06:16;134.18;;;27.98;;
56297;SDS011;42208;6.376;-10.782;2023-02-10T06:08:44;117.93;;;27.85;;
56297;SDS011;42208;6.376;-10.782;2023-02-10T06:11:13;109.40;;;25.00;;
56297;SDS011;42208;6.376;-10.782;2023-02-10T06:13:41;135.88;;;27.55;;
56297;SDS011;42208;6.376;-10.782;2023-02-10T06:16:09;121.60;;;28.45;;
56297;SDS011;42208;6.376;-10.782;2023-02-10T06:18:38;136.75;;;28.27;;
56297;SDS011;42208;6.376;-10.782;2023-02-10T06:21:06;128.50;;;27.52;;
56297;SDS011;42208;6.376;-10.782;2023-02-10T06:23:34;119.85;;;26.92;;
56297;SDS011;42208;6.376;-10.782;2023-02-10T06:26:03;130.10;;;28.23;;
56297;SDS011;42208;6.376;-10.782;2023-02-10T06:28:32;114.32;;;30.65;;
56297;SDS011;42208;6.376;-10.782;2023-02-10T06:31:00;114.15;;;29.98;;
56297;SDS011;42208;6.376;-10.782;2023-02-10T06:33:28;109.78;;;27.75;;
56297;SDS011;42208;6.376;-10.782;2023-02-10T06:35:58;116.50;;;26.65;;
56297;SDS011;42208;6.376;-10.782;2023-02-10T06:38:26;127.15;;;28.35;;
56297;SDS011;42208;6.376;-10.782;2023-02-10T06:40:55;122.28;;;25.02;;
56297;SDS011;42208;6.376;-10.782;2023-02-10T06:43:23;104.32;;;23.40;;
56297;SDS011;42208;6.376;-10.782;2023-02-10T06:45:51;120.30;;;24.98;;
56297;SDS011;42208;6.376;-10.782;2023-02-10T06:48:22;123.57;;;23.10;;
56297;SDS011;42208;6.376;-10.782;2023-02-10T06:50:54;104.47;;;22.77;;
56297;SDS011;42208;6.376;-10.782;2023-02-10T06:53:22;119.70;;;23.52;;
56297;SDS011;42208;6.376;-10.782;2023-02-10T06:55:50;121.25;;;23.27;;
56297;SDS011;42208;6.376;-10.782;2023-02-10T06:58:22;102.97;;;22.27;;
56297;SDS011;42208;6.376;-10.782;2023-02-10T07:00:50;110.82;;;21.58;;
56297;SDS011;42208;6.376;-10.782;2023-02-10T07:03:19;106.32;;;19.27;;
56297;SDS011;42208;6.376;-10.782;2023-02-10T07:05:47;104.35;;;22.15;;
56297;SDS011;42208;6.376;-10.782;2023-02-10T07:08:16;98.43;;;21.38;;
56297;SDS011;42208;6.376;-10.782;2023-02-10T07:10:44;130.07;;;22.80;;
56297;SDS011;42208;6.376;-10.782;2023-02-10T07:13:13;114.70;;;23.05;;
56297;SDS011;42208;6.376;-10.782;2023-02-10T07:15:41;102.97;;;21.75;;
56297;SDS011;42208;6.376;-10.782;2023-02-10T07:18:09;109.90;;;22.38;;
56297;SDS011;42208;6.376;-10.782;2023-02-10T07:20:37;97.75;;;21.13;;
56297;SDS011;42208;6.376;-10.782;2023-02-10T07:23:06;92.90;;;20.77;;
56297;SDS011;42208;6.376;-10.782;2023-02-10T07:25:34;99.50;;;20.65;;
56297;SDS011;42208;6.376;-10.782;2023-02-10T07:28:02;97.93;;;21.05;;
56297;SDS011;42208;6.376;-10.782;2023-02-10T07:30:31;110.75;;;21.23;;
56297;SDS011;42208;6.376;-10.782;2023-02-10T07:32:59;110.20;;;22.13;;
56297;SDS011;42208;6.376;-10.782;2023-02-10T07:35:27;95.15;;;20.65;;
56297;SDS011;42208;6.376;-10.782;2023-02-10T07:37:56;101.32;;;21.65;;
56297;SDS011;42208;6.376;-10.782;2023-02-10T07:40:24;97.25;;;22.08;;
56297;SDS011;42208;6.376;-10.782;2023-02-10T07:42:52;90.47;;;18.85;;
56297;SDS011;42208;6.376;-10.782;2023-02-10T07:45:28;94.75;;;19.70;;
56297;SDS011;42208;6.376;-10.782;2023-02-10T07:47:57;92.43;;;19.08;;
56297;SDS011;42208;6.376;-10.782;2023-02-10T07:50:26;120.15;;;22.85;;
56297;SDS011;42208;6.376;-10.782;2023-02-10T07:52:58;102.53;;;21.42;;
56297;SDS011;42208;6.376;-10.782;2023-02-10T07:55:26;96.90;;;19.40;;
56297;SDS011;42208;6.376;-10.782;2023-02-10T07:57:55;102.40;;;23.92;;
56297;SDS011;42208;6.376;-10.782;2023-02-10T08:00:23;92.10;;;22.65;;
56297;SDS011;42208;6.376;-10.782;2023-02-10T08:02:51;97.55;;;22.95;;
56297;SDS011;42208;6.376;-10.782;2023-02-10T08:05:19;103.88;;;20.88;;
56297;SDS011;42208;6.376;-10.782;2023-02-10T08:07:48;77.18;;;18.25;;
56297;SDS011;42208;6.376;-10.782;2023-02-10T08:10:16;93.00;;;21.25;;
56297;SDS011;42208;6.376;-10.782;2023-02-10T08:12:44;104.57;;;19.38;;
56297;SDS011;42208;6.376;-10.782;2023-02-10T08:15:13;94.95;;;20.83;;
56297;SDS011;42208;6.376;-10.782;2023-02-10T08:17:41;90.88;;;19.15;;
56297;SDS011;42208;6.376;-10.782;2023-02-10T08:20:10;101.32;;;21.27;;
56297;SDS011;42208;6.376;-10.782;2023-02-10T08:22:38;81.53;;;22.20;;
56297;SDS011;42208;6.376;-10.782;2023-02-10T08:25:07;83.38;;;17.65;;
56297;SDS011;42208;6.376;-10.782;2023-02-10T08:27:35;88.82;;;17.73;;
56297;SDS011;42208;6.376;-10.782;2023-02-10T08:30:04;87.15;;;17.48;;
56297;SDS011;42208;6.376;-10.782;2023-02-10T08:32:32;92.43;;;20.30;;
56297;SDS011;42208;6.376;-10.782;2023-02-10T08:35:01;90.28;;;17.95;;
56297;SDS011;42208;6.376;-10.782;2023-02-10T08:37:29;96.25;;;17.77;;
56297;SDS011;42208;6.376;-10.782;2023-02-10T08:39:57;99.72;;;19.23;;
56297;SDS011;42208;6.376;-10.782;2023-02-10T08:42:26;97.55;;;18.77;;
56297;SDS011;42208;6.376;-10.782;2023-02-10T08:44:54;104.03;;;19.83;;
56297;SDS011;42208;6.376;-10.782;2023-02-10T08:47:23;93.78;;;18.95;;
56297;SDS011;42208;6.376;-10.782;2023-02-10T08:49:51;93.65;;;21.38;;
56297;SDS011;42208;6.376;-10.782;2023-02-10T08:52:21;97.80;;;21.20;;
56297;SDS011;42208;6.376;-10.782;2023-02-10T08:54:49;96.53;;;21.92;;
56297;SDS011;42208;6.376;-10.782;2023-02-10T08:57:18;95.50;;;21.27;;
56297;SDS011;42208;6.376;-10.782;2023-02-10T08:59:46;111.57;;;25.52;;
56297;SDS011;42208;6.376;-10.782;2023-02-10T09:02:14;107.80;;;29.38;;
56297;SDS011;42208;6.376;-10.782;2023-02-10T09:04:43;117.00;;;25.80;;
56297;SDS011;42208;6.376;-10.782;2023-02-10T09:07:14;103.82;;;24.83;;
56297;SDS011;42208;6.376;-10.782;2023-02-10T09:09:42;111.32;;;23.67;;
56297;SDS011;42208;6.376;-10.782;2023-02-10T09:12:11;113.55;;;24.70;;
56297;SDS011;42208;6.376;-10.782;2023-02-10T09:14:39;127.60;;;26.55;;
56297;SDS011;42208;6.376;-10.782;2023-02-10T09:17:10;141.75;;;29.15;;
56297;SDS011;42208;6.376;-10.782;2023-02-10T09:19:39;121.32;;;24.67;;
56297;SDS011;42208;6.376;-10.782;2023-02-10T09:22:07;102.93;;;23.30;;
56297;SDS011;42208;6.376;-10.782;2023-02-10T09:24:35;102.22;;;24.95;;
56297;SDS011;42208;6.376;-10.782;2023-02-10T09:27:03;115.72;;;23.83;;
56297;SDS011;42208;6.376;-10.782;2023-02-10T09:29:32;122.13;;;25.88;;
56297;SDS011;42208;6.376;-10.782;2023-02-10T09:32:00;107.82;;;21.92;;
56297;SDS011;42208;6.376;-10.782;2023-02-10T09:34:28;130.43;;;28.67;;
56297;SDS011;42208;6.376;-10.782;2023-02-10T09:36:58;108.65;;;26.70;;
56297;SDS011;42208;6.376;-10.782;2023-02-10T09:39:27;99.28;;;19.98;;
56297;SDS011;42208;6.376;-10.782;2023-02-10T09:45:13;70.95;;;17.13;;
56297;SDS011;42208;6.376;-10.782;2023-02-10T09:47:49;93.57;;;18.98;;
56297;SDS011;42208;6.376;-10.782;2023-02-10T09:53:10;73.85;;;16.25;;
56297;SDS011;42208;6.376;-10.782;2023-02-10T09:55:58;68.15;;;16.08;;
56297;SDS011;42208;6.376;-10.782;2023-02-10T09:58:53;86.70;;;18.70;;
56297;SDS011;42208;6.376;-10.782;2023-02-10T10:01:34;85.95;;;18.60;;
56297;SDS011;42208;6.376;-10.782;2023-02-10T10:04:13;81.07;;;19.27;;
56297;SDS011;42208;6.376;-10.782;2023-02-10T10:06:46;103.25;;;18.08;;
56297;SDS011;42208;6.376;-10.782;2023-02-10T10:10:29;93.28;;;19.42;;
56297;SDS011;42208;6.376;-10.782;2023-02-10T10:12:49;80.63;;;19.30;;
56297;SDS011;42208;6.376;-10.782;2023-02-10T10:15:18;95.95;;;20.90;;
56297;SDS011;42208;6.376;-10.782;2023-02-10T10:30:58;86.53;;;14.90;;
56297;SDS011;42208;6.376;-10.782;2023-02-10T10:33:45;87.53;;;15.35;;
56297;SDS011;42208;6.376;-10.782;2023-02-10T10:36:43;54.47;;;14.95;;
56297;SDS011;42208;6.376;-10.782;2023-02-10T10:39:26;83.55;;;19.27;;
56297;SDS011;42208;6.376;-10.782;2023-02-10T10:42:01;67.38;;;13.32;;
56297;SDS011;42208;6.376;-10.782;2023-02-10T10:44:37;68.03;;;13.52;;
56297;SDS011;42208;6.376;-10.782;2023-02-10T10:47:12;55.95;;;12.98;;
56297;SDS011;42208;6.376;-10.782;2023-02-10T10:50:01;57.00;;;11.45;;
56297;SDS011;42208;6.376;-10.782;2023-02-10T10:52:34;64.60;;;11.93;;
56297;SDS011;42208;6.376;-10.782;2023-02-10T10:55:05;52.78;;;12.82;;
56297;SDS011;42208;6.376;-10.782;2023-02-10T10:57:40;66.80;;;12.35;;
56297;SDS011;42208;6.376;-10.782;2023-02-10T11:00:17;68.53;;;14.70;;
56297;SDS011;42208;6.376;-10.782;2023-02-10T11:02:52;76.80;;;12.85;;
56297;SDS011;42208;6.376;-10.782;2023-02-10T11:05:27;57.80;;;12.30;;
56297;SDS011;42208;6.376;-10.782;2023-02-10T11:08:05;71.30;;;15.40;;
56297;SDS011;42208;6.376;-10.782;2023-02-10T11:13:19;70.65;;;13.75;;
56297;SDS011;42208;6.376;-10.782;2023-02-10T11:15:49;74.53;;;13.98;;
56297;SDS011;42208;6.376;-10.782;2023-02-10T11:18:28;67.75;;;14.75;;
56297;SDS011;42208;6.376;-10.782;2023-02-10T11:20:58;74.10;;;15.90;;
56297;SDS011;42208;6.376;-10.782;2023-02-10T11:23:47;61.00;;;13.82;;
56297;SDS011;42208;6.376;-10.782;2023-02-10T11:26:23;64.85;;;14.25;;
56297;SDS011;42208;6.376;-10.782;2023-02-10T11:28:53;74.88;;;16.40;;
56297;SDS011;42208;6.376;-10.782;2023-02-10T11:33:58;75.40;;;16.20;;
56297;SDS011;42208;6.376;-10.782;2023-02-10T11:36:30;69.45;;;13.70;;
56297;SDS011;42208;6.376;-10.782;2023-02-10T11:39:15;78.05;;;13.65;;
56297;SDS011;42208;6.376;-10.782;2023-02-10T11:42:11;72.45;;;14.43;;
56297;SDS011;42208;6.376;-10.782;2023-02-10T11:44:59;84.85;;;14.15;;
56297;SDS011;42208;6.376;-10.782;2023-02-10T11:47:47;94.68;;;16.45;;
56297;SDS011;42208;6.376;-10.782;2023-02-10T11:50:32;61.67;;;13.07;;
56297;SDS011;42208;6.376;-10.782;2023-02-10T11:53:02;81.25;;;16.33;;
56297;SDS011;42208;6.376;-10.782;2023-02-10T11:55:45;85.22;;;17.80;;
56297;SDS011;42208;6.376;-10.782;2023-02-10T12:06:36;76.88;;;13.90;;
56297;SDS011;42208;6.376;-10.782;2023-02-10T12:15:02;84.25;;;15.82;;
56297;SDS011;42208;6.376;-10.782;2023-02-10T12:23:33;78.50;;;15.88;;
56297;SDS011;42208;6.376;-10.782;2023-02-10T12:31:38;84.82;;;17.33;;
56297;SDS011;42208;6.376;-10.782;2023-02-10T12:39:35;75.97;;;15.40;;
56297;SDS011;42208;6.376;-10.782;2023-02-10T12:47:38;80.60;;;13.13;;
56297;SDS011;42208;6.376;-10.782;2023-02-10T12:53:22;72.82;;;13.93;;
56297;SDS011;42208;6.376;-10.782;2023-02-10T13:01:52;75.97;;;14.30;;
56297;SDS011;42208;6.376;-10.782;2023-02-10T13:04:06;67.63;;;14.07;;
56297;SDS011;42208;6.376;-10.782;2023-02-10T13:06:56;65.80;;;12.73;;
56297;SDS011;42208;6.376;-10.782;2023-02-10T13:09:32;72.45;;;14.32;;
56297;SDS011;42208;6.376;-10.782;2023-02-10T13:14:42;73.15;;;16.50;;
56297;SDS011;42208;6.376;-10.782;2023-02-10T13:17:13;72.88;;;17.73;;
56297;SDS011;42208;6.376;-10.782;2023-02-10T13:19:49;100.13;;;21.35;;
56297;SDS011;42208;6.376;-10.782;2023-02-10T13:22:38;77.35;;;17.55;;
56297;SDS011;42208;6.376;-10.782;2023-02-10T13:25:16;79.32;;;18.52;;
56297;SDS011;42208;6.376;-10.782;2023-02-10T13:35:36;69.68;;;16.10;;
56297;SDS011;42208;6.376;-10.782;2023-02-10T13:38:08;81.85;;;15.50;;
56297;SDS011;42208;6.376;-10.782;2023-02-10T13:40:50;75.72;;;16.98;;
56297;SDS011;42208;6.376;-10.782;2023-02-10T13:45:50;83.03;;;16.58;;
56297;SDS011;42208;6.376;-10.782;2023-02-10T13:48:24;82.50;;;17.20;;
56297;SDS011;42208;6.376;-10.782;2023-02-10T13:51:07;76.70;;;15.35;;
56297;SDS011;42208;6.376;-10.782;2023-02-10T13:58:52;68.55;;;15.60;;
56297;SDS011;42208;6.376;-10.782;2023-02-10T14:01:39;81.50;;;16.92;;
56297;SDS011;42208;6.376;-10.782;2023-02-10T14:06:46;85.22;;;15.98;;
56297;SDS011;42208;6.376;-10.782;2023-02-10T14:11:58;96.45;;;17.48;;
56297;SDS011;42208;6.376;-10.782;2023-02-10T14:14:29;79.85;;;16.67;;
56297;SDS011;42208;6.376;-10.782;2023-02-10T14:17:13;85.43;;;20.98;;
56297;SDS011;42208;6.376;-10.782;2023-02-10T14:19:51;68.53;;;15.77;;
56297;SDS011;42208;6.376;-10.782;2023-02-10T14:28:02;80.63;;;16.17;;
56297;SDS011;42208;6.376;-10.782;2023-02-10T14:33:06;64.30;;;14.18;;
56297;SDS011;42208;6.376;-10.782;2023-02-10T14:35:56;72.53;;;14.48;;
56297;SDS011;42208;6.376;-10.782;2023-02-10T14:38:28;65.53;;;14.13;;
56297;SDS011;42208;6.376;-10.782;2023-02-10T14:40:58;56.63;;;11.88;;
56297;SDS011;42208;6.376;-10.782;2023-02-10T14:43:41;56.17;;;13.13;;
56297;SDS011;42208;6.376;-10.782;2023-02-10T14:46:11;67.25;;;12.98;;
56297;SDS011;42208;6.376;-10.782;2023-02-10T14:48:47;83.05;;;17.58;;
56297;SDS011;42208;6.376;-10.782;2023-02-10T14:51:23;62.30;;;13.02;;
56297;SDS011;42208;6.376;-10.782;2023-02-10T14:53:52;64.80;;;13.75;;
56297;SDS011;42208;6.376;-10.782;2023-02-10T14:56:24;81.72;;;13.82;;
56297;SDS011;42208;6.376;-10.782;2023-02-10T14:58:54;68.82;;;15.57;;
56297;SDS011;42208;6.376;-10.782;2023-02-10T15:01:26;69.60;;;15.73;;
56297;SDS011;42208;6.376;-10.782;2023-02-10T15:04:00;64.93;;;12.52;;
56297;SDS011;42208;6.376;-10.782;2023-02-10T15:06:29;70.97;;;14.20;;
56297;SDS011;42208;6.376;-10.782;2023-02-10T15:08:59;60.15;;;13.05;;
56297;SDS011;42208;6.376;-10.782;2023-02-10T15:11:33;75.32;;;13.90;;
56297;SDS011;42208;6.376;-10.782;2023-02-10T15:14:11;66.22;;;15.32;;
56297;SDS011;42208;6.376;-10.782;2023-02-10T15:16:51;75.55;;;15.45;;
56297;SDS011;42208;6.376;-10.782;2023-02-10T15:19:25;71.68;;;15.10;;
56297;SDS011;42208;6.376;-10.782;2023-02-10T15:21:53;61.83;;;12.60;;
56297;SDS011;42208;6.376;-10.782;2023-02-10T15:24:28;70.22;;;13.40;;
56297;SDS011;42208;6.376;-10.782;2023-02-10T15:27:14;72.60;;;15.30;;
56297;SDS011;42208;6.376;-10.782;2023-02-10T15:29:44;57.38;;;12.85;;
56297;SDS011;42208;6.376;-10.782;2023-02-10T15:32:22;64.95;;;13.68;;
56297;SDS011;42208;6.376;-10.782;2023-02-10T15:34:50;76.43;;;12.88;;
56297;SDS011;42208;6.376;-10.782;2023-02-10T15:37:19;63.17;;;13.60;;
56297;SDS011;42208;6.376;-10.782;2023-02-10T15:39:58;67.03;;;13.70;;
56297;SDS011;42208;6.376;-10.782;2023-02-10T15:42:30;70.97;;;14.15;;
56297;SDS011;42208;6.376;-10.782;2023-02-10T15:45:20;67.80;;;14.45;;
56297;SDS011;42208;6.376;-10.782;2023-02-10T15:47:53;69.97;;;14.25;;
56297;SDS011;42208;6.376;-10.782;2023-02-10T15:50:42;69.85;;;13.30;;
56297;SDS011;42208;6.376;-10.782;2023-02-10T15:53:11;91.70;;;15.50;;
56297;SDS011;42208;6.376;-10.782;2023-02-10T15:55:45;77.97;;;13.82;;
56297;SDS011;42208;6.376;-10.782;2023-02-10T15:58:15;77.90;;;14.57;;
56297;SDS011;42208;6.376;-10.782;2023-02-10T16:00:43;96.53;;;22.23;;
56297;SDS011;42208;6.376;-10.782;2023-02-10T16:03:11;73.35;;;14.50;;
56297;SDS011;42208;6.376;-10.782;2023-02-10T16:05:40;74.82;;;15.57;;
56297;SDS011;42208;6.376;-10.782;2023-02-10T16:08:12;93.95;;;19.08;;
56297;SDS011;42208;6.376;-10.782;2023-02-10T16:10:48;79.55;;;15.93;;
56297;SDS011;42208;6.376;-10.782;2023-02-10T16:13:16;82.47;;;15.20;;
56297;SDS011;42208;6.376;-10.782;2023-02-10T16:15:45;84.35;;;16.05;;
56297;SDS011;42208;6.376;-10.782;2023-02-10T16:18:20;80.57;;;14.60;;
56297;SDS011;42208;6.376;-10.782;2023-02-10T16:20:51;83.55;;;17.35;;
56297;SDS011;42208;6.376;-10.782;2023-02-10T16:23:20;64.65;;;14.18;;
56297;SDS011;42208;6.376;-10.782;2023-02-10T16:25:48;72.10;;;21.70;;
56297;SDS011;42208;6.376;-10.782;2023-02-10T16:28:17;104.03;;;18.88;;
56297;SDS011;42208;6.376;-10.782;2023-02-10T16:30:46;106.18;;;18.85;;
56297;SDS011;42208;6.376;-10.782;2023-02-10T16:33:14;81.90;;;22.85;;